Time;durP1;ratioP1;P1;durP2;ratioP2;P2;SDS_P1;SDS_P2;PMS_P1;PMS_P2;Temp;Humidity;BMP_temperature;BMP_pressure;BME280_temperature;BME280_humidity;BME280_pressure;Samples;Min_cycle;Max_cycle;Signal;HPM_P1;HPM_P2
2022/11/14 00:01:58;;;;;;;15.37;10.40;;;19.00;42.70;18.10;101352.00;;;;5072431;28;20115;-72
2022/11/14 00:04:24;;;;;;;13.10;9.57;;;19.00;42.70;18.10;101359.00;;;;5071829;28;20111;-72
2022/11/14 00:06:50;;;;;;;15.20;9.70;;;19.10;42.70;18.10;101352.00;;;;5072825;28;20123;-71
2022/11/14 00:09:15;;;;;;;15.13;10.70;;;19.10;42.70;18.10;101345.00;;;;5072304;28;20104;-71
2022/11/14 00:11:41;;;;;;;13.93;10.00;;;19.00;42.70;18.10;101350.00;;;;5072177;28;20111;-72
2022/11/14 00:14:09;;;;;;;16.17;10.83;;;19.00;42.70;18.10;101350.00;;;;5070891;28;20107;-71
2022/11/14 00:16:35;;;;;;;14.48;10.07;;;19.00;42.70;18.10;101346.00;;;;5041894;28;20127;-72
2022/11/14 00:19:01;;;;;;;15.60;9.90;;;19.00;42.70;18.10;101338.00;;;;5054373;28;20025;-72
2022/11/14 00:21:26;;;;;;;14.40;10.40;;;19.00;42.70;18.10;101338.00;;;;5071950;28;20056;-71
2022/11/14 00:23:52;;;;;;;15.43;10.57;;;19.00;42.70;18.10;101328.00;;;;5071695;28;20107;-71
2022/11/14 00:26:18;;;;;;;15.03;10.70;;;19.00;42.70;18.10;101324.00;;;;5071469;28;20120;-72
2022/11/14 00:28:43;;;;;;;15.03;9.87;;;19.00;42.70;18.10;101324.00;;;;5072229;28;20175;-71
2022/11/14 00:31:10;;;;;;;16.20;10.17;;;19.00;42.70;18.10;101322.00;;;;5071136;28;20123;-72
2022/11/14 00:33:36;;;;;;;13.82;9.85;;;19.10;42.70;18.10;101318.00;;;;5052536;28;20430;-71
2022/11/14 00:36:02;;;;;;;16.58;10.60;;;19.00;42.70;18.10;101314.00;;;;5052330;28;20082;-71
2022/11/14 00:38:27;;;;;;;16.37;10.47;;;19.00;43.40;18.10;101306.00;;;;5069632;28;20028;-72
2022/11/14 00:40:53;;;;;;;14.93;10.70;;;19.00;42.70;18.10;101305.00;;;;5069588;28;20068;-71
2022/11/14 00:43:19;;;;;;;13.60;9.77;;;19.00;42.70;18.10;101303.00;;;;5052399;28;20035;-71
2022/11/14 00:45:45;;;;;;;15.70;10.43;;;19.00;42.70;18.00;101300.00;;;;5070790;28;20112;-72
2022/11/14 00:48:11;;;;;;;17.13;10.98;;;18.90;42.60;18.00;101303.00;;;;5053358;28;20532;-71
2022/11/14 00:50:37;;;;;;;16.53;11.20;;;19.00;42.70;18.00;101302.00;;;;5071255;28;20036;-72
2022/11/14 00:53:03;;;;;;;14.43;10.10;;;19.00;42.70;18.00;101305.00;;;;5053708;28;20533;-72
2022/11/14 00:55:28;;;;;;;15.10;10.60;;;19.00;42.70;18.00;101288.00;;;;5053006;28;20115;-72
2022/11/14 00:57:54;;;;;;;14.83;10.50;;;19.00;42.60;18.00;101295.00;;;;5070865;28;20325;-72
2022/11/14 01:00:20;;;;;;;15.13;9.70;;;18.90;42.60;18.00;101300.00;;;;5070979;28;20067;-72
2022/11/14 01:02:46;;;;;;;14.10;10.30;;;18.90;42.60;18.00;101294.00;;;;5071181;28;20044;-71
2022/11/14 01:05:11;;;;;;;15.70;10.63;;;19.00;42.70;18.00;101302.00;;;;5070628;28;20041;-72
2022/11/14 01:07:37;;;;;;;16.73;10.60;;;19.00;42.70;18.00;101298.00;;;;5070562;28;20030;-72
2022/11/14 01:10:04;;;;;;;16.37;10.63;;;19.00;42.70;18.00;101294.00;;;;5053744;28;20036;-72
2022/11/14 01:12:29;;;;;;;14.90;10.07;;;18.90;42.60;18.00;101297.00;;;;5070573;28;20036;-72
2022/11/14 01:14:55;;;;;;;15.40;10.87;;;18.90;42.60;18.00;101297.00;;;;5069997;28;20409;-71
2022/11/14 01:17:21;;;;;;;15.40;10.43;;;18.90;42.60;18.00;101291.00;;;;5070725;28;20185;-71
2022/11/14 01:19:46;;;;;;;16.50;11.30;;;18.90;42.60;18.00;101289.00;;;;5071499;28;20115;-71
2022/11/14 01:22:12;;;;;;;14.93;10.47;;;18.90;42.60;18.00;101282.00;;;;5048286;28;20166;-71
2022/11/14 01:24:38;;;;;;;15.37;10.37;;;18.90;42.60;18.00;101281.00;;;;5070520;28;20146;-71
2022/11/14 01:27:04;;;;;;;14.37;10.47;;;18.90;42.60;18.00;101277.00;;;;5070077;28;20123;-71
2022/11/14 01:29:29;;;;;;;14.77;10.27;;;18.90;42.60;18.00;101265.00;;;;5069717;28;20107;-71
2022/11/14 01:31:55;;;;;;;14.27;9.97;;;18.90;42.60;18.00;101267.00;;;;5070700;28;20056;-72
2022/11/14 01:34:21;;;;;;;15.70;10.50;;;18.90;42.60;18.00;101264.00;;;;5070492;28;20037;-72
2022/11/14 01:36:47;;;;;;;16.67;11.00;;;18.90;42.60;18.00;101256.00;;;;5070709;28;20105;-72
2022/11/14 01:39:13;;;;;;;14.27;9.87;;;18.90;42.60;18.00;101260.00;;;;5069351;28;20032;-71
2022/11/14 01:41:39;;;;;;;15.50;10.77;;;18.90;42.60;18.00;101258.00;;;;5069977;28;20537;-71
2022/11/14 01:44:12;;;;;;;16.27;10.70;;;18.90;42.60;18.00;101257.00;;;;5052674;28;20543;-72
2022/11/14 01:46:39;;;;;;;14.13;10.18;;;18.90;42.60;18.00;101248.00;;;;5039326;28;20028;-72
2022/11/14 01:49:23;;;;;;;14.23;10.15;;;18.90;42.60;18.00;101246.00;;;;5069878;28;20037;-71
2022/11/14 01:51:58;;;;;;;15.13;10.52;;;18.90;42.60;18.00;101238.00;;;;5054433;28;20028;-71
2022/11/14 01:54:28;;;;;;;15.65;10.57;;;18.90;42.60;18.00;101244.00;;;;5042576;28;20044;-71
2022/11/14 01:57:01;;;;;;;14.75;10.18;;;18.80;42.50;18.00;101240.00;;;;5052633;28;20562;-71
2022/11/14 01:59:37;;;;;;;16.15;11.10;;;18.90;42.60;18.00;101232.00;;;;5052447;28;20530;-71
2022/11/14 02:02:21;;;;;;;15.05;10.65;;;18.90;42.50;17.90;101236.00;;;;5052461;28;20209;-71
2022/11/14 02:04:54;;;;;;;15.23;10.38;;;18.90;42.60;17.90;101231.00;;;;5069319;28;20425;-71
2022/11/14 02:07:20;;;;;;;13.75;9.43;;;18.90;43.20;17.90;101232.00;;;;5034593;28;20489;-71
2022/11/14 02:09:46;;;;;;;15.50;10.33;;;18.90;42.60;17.90;101241.00;;;;5070789;28;20032;-71
2022/11/14 02:12:14;;;;;;;14.93;10.75;;;18.90;42.50;17.90;101227.00;;;;5052293;28;20029;-71
2022/11/14 02:14:41;;;;;;;16.02;10.73;;;18.90;42.60;17.90;101224.00;;;;5051775;28;20042;-71
2022/11/14 02:17:06;;;;;;;15.80;10.85;;;18.90;42.50;17.90;101216.00;;;;5028704;28;20040;-72
2022/11/14 02:19:56;;;;;;;15.40;10.53;;;18.90;43.30;17.90;101223.00;;;;5052937;28;20499;-71
2022/11/14 02:22:22;;;;;;;15.13;11.18;;;18.80;42.50;17.90;101217.00;;;;5052425;28;20060;-71
2022/11/14 02:24:48;;;;;;;14.60;10.52;;;18.80;42.50;17.90;101211.00;;;;5070311;28;20045;-71
2022/11/14 02:27:14;;;;;;;17.67;10.97;;;18.70;42.40;17.90;101206.00;;;;5069626;28;20118;-71
2022/11/14 02:29:40;;;;;;;14.07;10.63;;;18.80;42.50;17.90;101206.00;;;;5035459;28;20094;-71
2022/11/14 02:32:05;;;;;;;15.60;10.80;;;18.80;42.40;17.90;101200.00;;;;5069310;28;20024;-72
2022/11/14 02:34:31;;;;;;;15.70;10.67;;;18.80;42.40;17.90;101201.00;;;;5070451;28;20103;-71
2022/11/14 02:36:57;;;;;;;17.27;10.60;;;18.80;42.50;17.90;101197.00;;;;5052127;28;20111;-71
2022/11/14 02:39:23;;;;;;;15.00;9.83;;;18.80;42.40;17.90;101201.00;;;;5051158;28;20051;-71
2022/11/14 02:41:51;;;;;;;15.40;11.10;;;18.90;42.40;17.90;101195.00;;;;5073671;28;20040;-71
2022/11/14 02:44:17;;;;;;;14.57;10.75;;;18.80;42.40;17.90;101194.00;;;;5074160;28;20032;-71
2022/11/14 02:46:43;;;;;;;14.63;10.20;;;18.90;42.40;17.90;101194.00;;;;5055372;28;20097;-72
2022/11/14 02:49:09;;;;;;;14.90;9.93;;;18.90;42.50;17.90;101177.00;;;;5081224;28;20543;-72
2022/11/14 02:51:34;;;;;;;17.07;11.37;;;18.80;42.40;17.90;101181.00;;;;5073490;28;20456;-71
2022/11/14 02:54:00;;;;;;;15.33;10.80;;;18.90;42.40;17.90;101181.00;;;;5078685;28;20595;-71
2022/11/14 02:56:26;;;;;;;13.03;9.97;;;18.80;42.40;17.90;101176.00;;;;5073709;28;20175;-72
2022/11/14 02:58:52;;;;;;;12.63;9.83;;;18.90;42.40;17.90;101183.00;;;;5072961;28;20036;-72
2022/11/14 03:01:17;;;;;;;14.63;10.27;;;18.70;42.30;17.90;101166.00;;;;5073393;28;20060;-72
2022/11/14 03:03:43;;;;;;;14.30;9.87;;;18.80;42.40;17.90;101161.00;;;;5072959;28;20064;-71
2022/11/14 03:06:09;;;;;;;13.50;9.57;;;18.80;42.40;17.90;101156.00;;;;5073623;28;20059;-72
2022/11/14 03:08:34;;;;;;;14.37;10.20;;;18.80;42.40;17.90;101160.00;;;;5073014;28;20121;-72
2022/11/14 03:11:07;;;;;;;16.20;10.00;;;18.80;42.40;17.90;101161.00;;;;5073378;28;20133;-72
2022/11/14 03:13:33;;;;;;;14.20;9.82;;;18.80;42.40;17.90;101158.00;;;;5055098;28;20036;-72
2022/11/14 03:16:08;;;;;;;14.40;9.77;;;18.80;42.30;17.90;101162.00;;;;5073354;28;20029;-71
2022/11/14 03:18:34;;;;;;;15.05;9.75;;;18.90;42.30;17.90;101157.00;;;;5072162;28;20029;-72
2022/11/14 03:21:10;;;;;;;13.37;9.83;;;18.90;42.40;17.90;101156.00;;;;5055553;28;20488;-72
2022/11/14 03:23:36;;;;;;;14.07;9.43;;;18.80;42.30;17.90;101149.00;;;;5077636;28;20024;-71
2022/11/14 03:26:04;;;;;;;14.00;9.93;;;18.80;42.30;17.90;101150.00;;;;5073576;28;20105;-72
2022/11/14 03:28:29;;;;;;;14.68;9.63;;;18.80;42.30;17.90;101149.00;;;;5057781;28;20031;-72
2022/11/14 03:30:55;;;;;;;13.67;10.13;;;18.80;42.30;17.90;101145.00;;;;5072720;28;20036;-71
2022/11/14 03:33:21;;;;;;;14.00;10.03;;;18.80;42.30;17.90;101148.00;;;;5072296;28;20530;-71
2022/11/14 03:35:49;;;;;;;13.50;9.37;;;18.80;42.30;17.90;101135.00;;;;5072724;28;20536;-71
2022/11/14 03:38:16;;;;;;;12.60;9.27;;;18.80;42.30;17.90;101138.00;;;;5054512;28;20024;-72
2022/11/14 03:40:41;;;;;;;14.00;9.18;;;18.80;42.30;17.90;101149.00;;;;5072922;28;20032;-71
2022/11/14 03:43:07;;;;;;;12.93;9.30;;;18.80;42.30;17.90;101151.00;;;;5067863;28;20035;-71
2022/11/14 03:45:34;;;;;;;12.30;8.90;;;18.80;42.30;17.90;101146.00;;;;5079238;28;20048;-71
2022/11/14 03:48:00;;;;;;;14.05;9.13;;;18.80;42.30;17.90;101138.00;;;;5055247;28;20036;-71
2022/11/14 03:50:26;;;;;;;12.80;9.47;;;18.80;42.30;17.90;101141.00;;;;5053615;28;20033;-71
2022/11/14 03:52:52;;;;;;;12.13;8.27;;;18.80;42.40;17.90;101137.00;;;;5071872;28;20107;-71
2022/11/14 03:55:17;;;;;;;11.27;8.87;;;18.70;42.30;17.90;101135.00;;;;5071653;28;20107;-71
2022/11/14 03:57:43;;;;;;;12.30;9.10;;;18.80;42.40;17.90;101127.00;;;;5071769;28;20127;-71
2022/11/14 04:00:09;;;;;;;11.73;8.40;;;18.80;42.40;17.90;101137.00;;;;5072512;28;20111;-71
2022/11/14 04:02:35;;;;;;;11.77;8.40;;;18.80;42.30;17.90;101139.00;;;;5054398;28;20024;-71
2022/11/14 04:05:01;;;;;;;13.70;9.37;;;18.80;42.30;17.90;101135.00;;;;5071764;28;20445;-71
2022/11/14 04:07:27;;;;;;;12.97;9.20;;;18.80;42.40;17.90;101137.00;;;;5071817;28;20121;-72
2022/11/14 04:09:52;;;;;;;14.13;8.70;;;18.80;42.30;17.90;101134.00;;;;5072088;28;20108;-72
2022/11/14 04:12:18;;;;;;;12.50;8.97;;;18.70;42.30;17.80;101132.00;;;;5072190;28;20115;-72
2022/11/14 04:14:44;;;;;;;10.53;8.07;;;18.70;42.30;17.80;101120.00;;;;5053705;28;20120;-72
2022/11/14 04:17:10;;;;;;;12.13;8.60;;;18.70;42.30;17.80;101134.00;;;;5072352;28;20078;-72
2022/11/14 04:19:35;;;;;;;11.83;8.57;;;18.80;42.30;17.80;101133.00;;;;5072128;28;20119;-72
2022/11/14 04:22:01;;;;;;;11.53;8.67;;;18.80;42.40;17.80;101134.00;;;;5071712;28;20037;-71
2022/11/14 04:24:27;;;;;;;13.03;8.87;;;18.70;42.30;17.80;101129.00;;;;5071502;28;20031;-72
2022/11/14 04:26:53;;;;;;;10.77;7.63;;;18.80;42.30;17.80;101127.00;;;;5072248;28;20063;-72
2022/11/14 04:29:18;;;;;;;12.20;8.13;;;18.80;42.40;17.80;101123.00;;;;5075372;28;20033;-72
2022/11/14 04:31:44;;;;;;;12.80;8.37;;;18.80;42.30;17.80;101112.00;;;;5071297;28;20103;-72
2022/11/14 04:34:10;;;;;;;11.63;8.43;;;18.80;42.30;17.80;101115.00;;;;5053419;28;20111;-72
2022/11/14 04:36:35;;;;;;;10.60;8.13;;;18.80;42.30;17.80;101112.00;;;;5071226;28;20109;-72
2022/11/14 04:39:01;;;;;;;11.43;8.00;;;18.70;42.20;17.80;101106.00;;;;5071613;28;20123;-72
2022/11/14 04:41:27;;;;;;;9.57;7.63;;;18.70;42.30;17.80;101110.00;;;;5072049;28;20116;-72
2022/11/14 04:43:53;;;;;;;11.60;8.30;;;18.70;42.20;17.80;101103.00;;;;5071033;28;20115;-72
2022/11/14 04:46:18;;;;;;;10.83;8.03;;;18.80;42.30;17.80;101092.00;;;;5071661;28;20126;-71
2022/11/14 04:48:44;;;;;;;12.03;8.60;;;18.70;42.20;17.80;101100.00;;;;5071127;28;20112;-72
2022/11/14 04:51:10;;;;;;;10.33;8.10;;;18.70;42.20;17.80;101101.00;;;;5071015;28;20123;-72
2022/11/14 04:53:35;;;;;;;10.77;7.43;;;18.70;42.20;17.80;101090.00;;;;5071266;28;20128;-72
2022/11/14 04:56:01;;;;;;;9.70;7.80;;;18.80;42.20;17.80;101091.00;;;;5071471;28;20040;-71
2022/11/14 04:58:27;;;;;;;11.03;8.00;;;18.80;42.20;17.80;101090.00;;;;5071025;28;20174;-71
2022/11/14 05:00:53;;;;;;;11.53;8.20;;;18.80;42.20;17.80;101083.00;;;;5071084;28;20486;-72
2022/11/14 05:03:18;;;;;;;11.33;7.93;;;18.80;42.90;17.80;101080.00;;;;5070426;28;20167;-72
2022/11/14 05:05:45;;;;;;;12.27;7.80;;;18.70;42.10;17.80;101080.00;;;;5070780;28;20081;-71
2022/11/14 05:08:11;;;;;;;10.77;8.02;;;18.80;42.20;17.80;101083.00;;;;5070571;28;20032;-72
2022/11/14 05:10:36;;;;;;;9.53;7.27;;;18.80;42.20;17.80;101071.00;;;;5070829;28;20032;-72
2022/11/14 05:13:02;;;;;;;10.93;7.83;;;18.80;42.20;17.80;101063.00;;;;5069597;28;20108;-71
2022/11/14 05:15:28;;;;;;;12.52;7.90;;;18.80;42.20;17.80;101069.00;;;;5052621;28;20025;-71
2022/11/14 05:17:57;;;;;;;11.17;7.90;;;18.80;42.10;17.80;101063.00;;;;5070634;28;20028;-72
2022/11/14 05:20:22;;;;;;;11.00;8.27;;;18.70;42.10;17.80;101064.00;;;;5070265;28;20024;-71
2022/11/14 05:22:53;;;;;;;10.57;7.80;;;18.70;42.10;17.80;101058.00;;;;5070465;28;20355;-72
2022/11/14 05:25:19;;;;;;;10.75;7.88;;;18.70;42.00;17.80;101064.00;;;;5060147;28;20529;-71
2022/11/14 05:27:44;;;;;;;10.90;7.30;;;18.80;42.10;17.80;101051.00;;;;5070943;28;20020;-71
2022/11/14 05:30:11;;;;;;;10.30;7.27;;;18.80;42.10;17.80;101045.00;;;;5069080;28;20119;-71
2022/11/14 05:32:37;;;;;;;9.57;6.90;;;18.70;42.00;17.80;101047.00;;;;5067799;28;20065;-72
2022/11/14 05:35:03;;;;;;;9.03;6.60;;;18.80;42.10;17.80;101048.00;;;;5070544;28;20028;-71
2022/11/14 05:37:29;;;;;;;10.48;7.10;;;18.70;42.10;17.80;101045.00;;;;5070396;28;20505;-71
2022/11/14 05:39:54;;;;;;;10.50;6.90;;;18.80;42.10;17.80;101044.00;;;;5069980;28;20038;-71
2022/11/14 05:42:20;;;;;;;9.57;7.30;;;18.70;42.10;17.80;101044.00;;;;5070393;28;20067;-71
2022/11/14 05:44:46;;;;;;;12.10;7.43;;;18.70;42.10;17.80;101050.00;;;;5070472;28;20056;-71
2022/11/14 05:47:11;;;;;;;10.67;6.97;;;18.70;42.10;17.80;101046.00;;;;5070077;28;20029;-72
2022/11/14 05:49:37;;;;;;;10.10;7.27;;;18.70;42.10;17.80;101054.00;;;;5069345;28;20120;-72
2022/11/14 05:52:03;;;;;;;10.07;6.93;;;18.70;42.10;17.80;101054.00;;;;5070282;28;20310;-72
2022/11/14 05:54:29;;;;;;;10.40;7.80;;;18.70;42.10;17.80;101059.00;;;;5068172;28;20119;-71
2022/11/14 05:56:54;;;;;;;10.60;7.47;;;18.70;42.10;17.80;101059.00;;;;5069139;28;20127;-71
2022/11/14 05:59:20;;;;;;;10.17;7.33;;;18.80;42.60;17.80;101058.00;;;;5069635;28;20127;-71
2022/11/14 06:01:46;;;;;;;9.63;7.07;;;18.70;42.10;17.80;101049.00;;;;5069390;28;20458;-71
2022/11/14 06:04:13;;;;;;;10.13;7.07;;;18.70;42.10;17.80;101050.00;;;;5060231;28;20183;-71
2022/11/14 06:06:39;;;;;;;9.95;7.25;;;18.70;42.10;17.70;101056.00;;;;5050894;28;20472;-72
2022/11/14 06:09:04;;;;;;;9.57;7.27;;;18.60;42.10;17.70;101054.00;;;;5070080;28;20031;-71
2022/11/14 06:11:30;;;;;;;9.63;7.00;;;18.60;42.10;17.70;101059.00;;;;5070169;28;20108;-72
2022/11/14 06:13:56;;;;;;;8.67;6.73;;;18.60;42.10;17.70;101056.00;;;;5051308;28;20096;-72
2022/11/14 06:16:22;;;;;;;10.73;7.10;;;18.70;42.20;17.70;101066.00;;;;5068835;28;20356;-71
2022/11/14 06:18:47;;;;;;;9.57;6.80;;;18.60;42.10;17.70;101063.00;;;;5068814;28;20021;-72
2022/11/14 06:21:18;;;;;;;9.50;6.87;;;18.70;42.10;17.70;101054.00;;;;5052220;28;20486;-71
2022/11/14 06:23:44;;;;;;;8.45;6.18;;;18.60;42.10;17.70;101055.00;;;;5036665;28;20033;-71
2022/11/14 06:26:20;;;;;;;9.73;6.90;;;18.70;42.90;17.70;101058.00;;;;5052507;28;20028;-72
2022/11/14 06:28:48;;;;;;;10.15;7.50;;;18.60;42.10;17.70;101064.00;;;;5066743;28;20028;-72
2022/11/14 06:31:13;;;;;;;10.45;7.32;;;18.60;42.10;17.70;101055.00;;;;5045953;28;20029;-71
2022/11/14 06:33:39;;;;;;;11.40;6.10;;;18.60;42.10;17.70;101057.00;;;;5050975;28;20041;-71
2022/11/14 06:36:06;;;;;;;9.70;7.13;;;18.60;42.10;17.70;101047.00;;;;5070010;28;20111;-71
2022/11/14 06:38:33;;;;;;;9.23;6.68;;;18.60;42.10;17.70;101055.00;;;;5047946;28;20033;-72
2022/11/14 06:41:12;;;;;;;9.38;6.60;;;18.60;42.10;17.60;101055.00;;;;5065912;28;20067;-72
2022/11/14 06:43:39;;;;;;;9.13;6.60;;;18.60;42.10;17.60;101053.00;;;;5069993;28;20417;-71
2022/11/14 06:46:06;;;;;;;8.85;6.85;;;18.60;42.10;17.60;101047.00;;;;5054474;28;20470;-71
2022/11/14 06:48:32;;;;;;;;;;;18.60;42.10;17.60;101059.00;;;;5069770;28;20246;-72
2022/11/14 06:50:58;;;;;;;9.55;7.38;;;18.60;42.30;17.60;101053.00;;;;5051448;28;19912;-71
2022/11/14 06:53:24;;;;;;;8.98;6.50;;;18.60;42.10;17.60;101049.00;;;;5057862;28;20041;-72
2022/11/14 06:56:07;;;;;;;9.63;7.03;;;18.50;42.10;17.60;101050.00;;;;5051466;28;20032;-71
2022/11/14 06:58:37;;;;;;;9.38;6.53;;;18.50;42.10;17.60;101054.00;;;;5051479;28;20031;-71
2022/11/14 07:01:20;;;;;;;8.52;6.50;;;18.60;42.10;17.60;101053.00;;;;5068722;28;20115;-71
2022/11/14 07:03:46;;;;;;;10.23;6.93;;;18.50;42.10;17.60;101057.00;;;;5067790;28;20520;-71
2022/11/14 07:06:17;;;;;;;10.13;7.10;;;18.50;42.10;17.60;101060.00;;;;5068647;28;20174;-71
2022/11/14 07:08:43;;;;;;;8.55;6.30;;;18.50;42.10;17.60;101056.00;;;;5049854;28;20474;-71
2022/11/14 07:11:11;;;;;;;9.23;6.47;;;18.40;42.00;17.60;101050.00;;;;5068375;28;20039;-71
2022/11/14 07:13:37;;;;;;;7.95;6.30;;;18.50;42.10;17.60;101051.00;;;;5067443;28;20031;-71
2022/11/14 07:16:03;;;;;;;9.48;6.45;;;18.50;42.10;17.60;101044.00;;;;5051134;28;20433;-71
2022/11/14 07:18:30;;;;;;;8.95;6.25;;;18.50;42.10;17.60;101052.00;;;;5058599;28;20402;-71
2022/11/14 07:21:01;;;;;;;9.00;6.93;;;18.50;42.10;17.60;101052.00;;;;5069287;28;20389;-71
2022/11/14 07:23:27;;;;;;;8.60;6.55;;;18.50;42.80;17.60;101035.00;;;;5049660;28;20082;-71
2022/11/14 07:25:53;;;;;;;8.52;5.95;;;18.50;42.10;17.60;101031.00;;;;5054587;28;20048;-71
2022/11/14 07:28:18;;;;;;;10.00;6.50;;;18.50;42.10;17.60;101036.00;;;;5072336;28;20033;-72
2022/11/14 07:30:44;;;;;;;8.87;6.70;;;18.60;42.10;17.60;101046.00;;;;5054757;28;20033;-71
2022/11/14 07:33:10;;;;;;;9.07;6.73;;;18.50;42.10;17.60;101046.00;;;;5072090;28;20154;-71
2022/11/14 07:35:38;;;;;;;9.47;6.90;;;18.50;42.10;17.60;101046.00;;;;5072393;28;20116;-71
2022/11/14 07:38:04;;;;;;;8.98;6.38;;;18.50;42.10;17.60;101046.00;;;;5069829;28;20033;-72
2022/11/14 07:40:30;;;;;;;8.93;6.80;;;18.50;42.10;17.60;101053.00;;;;5054672;28;20028;-71
2022/11/14 07:42:59;;;;;;;10.37;6.67;;;18.50;42.10;17.50;101048.00;;;;5072102;28;20379;-71
2022/11/14 07:45:26;;;;;;;7.22;5.47;;;18.50;42.10;17.50;101037.00;;;;5078195;28;20105;-71
2022/11/14 07:48:00;;;;;;;10.13;6.97;;;18.50;42.10;17.50;101033.00;;;;5070415;28;21051;-72
2022/11/14 07:50:26;;;;;;;10.20;6.97;;;18.40;42.00;17.50;101026.00;;;;5051748;28;20033;-72
2022/11/14 07:52:53;;;;;;;10.07;6.55;;;18.40;42.00;17.50;101018.00;;;;5071446;28;20033;-71
2022/11/14 07:55:18;;;;;;;;;;;18.40;42.00;17.50;101027.00;;;;5072607;28;20541;-71
2022/11/14 07:57:44;;;;;;;9.85;6.13;;;18.40;42.10;17.50;101027.00;;;;5072186;28;19995;-71
2022/11/14 08:00:11;;;;;;;7.85;5.75;;;18.50;42.10;17.50;101035.00;;;;5072422;28;20549;-72
2022/11/14 08:02:37;;;;;;;9.80;6.30;;;18.40;42.00;17.50;101035.00;;;;5053903;28;20570;-71
2022/11/14 08:05:03;;;;;;;7.77;6.23;;;18.50;42.00;17.50;101041.00;;;;5071459;28;20029;-72
2022/11/14 08:07:28;;;;;;;8.15;6.07;;;18.40;42.00;17.50;101032.00;;;;5071542;28;20033;-72
2022/11/14 08:09:54;;;;;;;8.47;5.73;;;18.40;42.00;17.50;101035.00;;;;5070205;28;20035;-72
2022/11/14 08:12:20;;;;;;;9.13;6.40;;;18.40;42.00;17.50;101042.00;;;;5068391;28;20104;-72
2022/11/14 08:14:45;;;;;;;8.50;5.53;;;18.40;42.00;17.50;101031.00;;;;5070112;28;20067;-71
2022/11/14 08:17:11;;;;;;;8.40;6.07;;;18.40;42.00;17.50;101044.00;;;;5068601;28;20187;-71
2022/11/14 08:19:37;;;;;;;10.07;7.03;;;18.40;42.00;17.50;101046.00;;;;5069929;28;20024;-72
2022/11/14 08:22:03;;;;;;;8.90;6.17;;;18.40;42.00;17.50;101050.00;;;;5067552;28;20056;-72
2022/11/14 08:24:28;;;;;;;8.80;6.50;;;18.40;42.00;17.50;101039.00;;;;5070061;28;20108;-72
2022/11/14 08:26:54;;;;;;;9.87;6.60;;;18.40;42.00;17.50;101048.00;;;;5071614;28;20115;-72
2022/11/14 08:29:20;;;;;;;8.97;6.30;;;18.40;42.00;17.50;101049.00;;;;5071722;28;20166;-71
2022/11/14 08:31:46;;;;;;;8.57;6.03;;;18.30;42.60;17.50;101043.00;;;;5054787;28;20286;-71
2022/11/14 08:34:11;;;;;;;8.43;5.80;;;18.40;42.00;17.50;101037.00;;;;5077512;28;20037;-71
2022/11/14 08:36:37;;;;;;;10.33;6.00;;;18.30;41.90;17.50;101043.00;;;;5053713;28;20103;-71
2022/11/14 08:39:03;;;;;;;8.63;6.13;;;18.40;42.00;17.50;101046.00;;;;5052431;28;20532;-71
2022/11/14 08:41:29;;;;;;;7.70;6.00;;;18.40;42.00;17.50;101044.00;;;;5069908;28;20052;-71
2022/11/14 08:43:55;;;;;;;6.73;5.57;;;18.40;42.00;17.50;101043.00;;;;5071631;28;20032;-71
2022/11/14 08:46:20;;;;;;;9.13;6.50;;;18.40;42.00;17.50;101037.00;;;;5070283;28;20535;-71
2022/11/14 08:48:46;;;;;;;7.83;6.13;;;18.40;42.00;17.50;101041.00;;;;5070027;28;20389;-72
2022/11/14 08:51:12;;;;;;;9.13;6.13;;;18.40;42.00;17.50;101033.00;;;;5074138;28;20090;-71
2022/11/14 08:53:38;;;;;;;8.23;5.77;;;18.40;42.00;17.50;101039.00;;;;5071130;28;20553;-71
2022/11/14 08:56:04;;;;;;;9.47;6.00;;;18.40;42.00;17.50;101039.00;;;;5071378;28;20115;-71
2022/11/14 08:58:30;;;;;;;8.23;6.35;;;18.40;42.00;17.50;101033.00;;;;5070719;28;20064;-72
2022/11/14 09:01:04;;;;;;;7.43;5.65;;;18.40;42.00;17.50;101026.00;;;;5052601;28;20036;-71
2022/11/14 09:03:30;;;;;;;8.10;5.47;;;18.40;42.00;17.50;101022.00;;;;5069972;28;20036;-72
2022/11/14 09:05:56;;;;;;;8.37;6.17;;;18.40;42.10;17.50;101017.00;;;;5067646;28;20493;-73
2022/11/14 09:08:22;;;;;;;7.77;6.13;;;18.40;42.00;17.50;101016.00;;;;5052268;28;20035;-72
2022/11/14 09:10:48;;;;;;;7.93;5.93;;;18.50;42.00;17.50;101026.00;;;;5052973;28;20486;-71
2022/11/14 09:13:14;;;;;;;8.50;6.30;;;18.40;42.00;17.50;101032.00;;;;5070038;28;20815;-72
2022/11/14 09:15:40;;;;;;;8.67;6.23;;;18.40;41.90;17.50;101012.00;;;;5053103;28;20447;-71
2022/11/14 09:18:06;;;;;;;9.57;6.10;;;18.50;42.00;17.50;101021.00;;;;5079875;28;20032;-71
2022/11/14 09:20:32;;;;;;;9.50;5.88;;;18.40;41.90;17.60;101020.00;;;;5079696;28;20067;-71
2022/11/14 09:22:59;;;;;;;8.03;5.70;;;18.50;42.00;17.60;101017.00;;;;5068082;28;20051;-71
2022/11/14 09:25:25;;;;;;;;;;;18.50;42.00;17.50;101012.00;;;;5068876;28;20032;-72
2022/11/14 09:27:51;;;;;;;7.50;5.65;;;18.40;42.00;17.60;101018.00;;;;5052313;28;19913;-71
2022/11/14 09:30:17;;;;;;;8.00;5.47;;;18.60;41.90;17.60;101015.00;;;;5046811;28;20032;-72
2022/11/14 09:32:43;;;;;;;7.80;5.83;;;18.50;41.90;17.60;101014.00;;;;5069780;28;20036;-72
2022/11/14 09:35:09;;;;;;;7.60;5.77;;;18.60;42.00;17.60;101010.00;;;;5063630;28;20162;-72
2022/11/14 09:37:34;;;;;;;8.57;5.70;;;18.50;41.90;17.60;101008.00;;;;5070022;28;20402;-71
2022/11/14 09:40:00;;;;;;;7.63;6.43;;;18.50;41.90;17.60;101004.00;;;;5050057;28;20111;-71
2022/11/14 09:43:06;;;;;;;6.97;5.33;;;18.50;42.00;17.60;101009.00;;;;5071534;28;20029;-71
2022/11/14 09:45:33;;;;;;;7.60;5.55;;;18.60;42.00;17.60;101008.00;;;;5065041;28;20035;-71
2022/11/14 09:48:11;;;;;;;7.88;5.88;;;18.60;41.90;17.60;101014.00;;;;5035683;28;20103;-71
2022/11/14 09:50:47;;;;;;;7.97;5.65;;;18.60;41.90;17.60;101017.00;;;;5037428;28;20386;-71
2022/11/14 09:53:26;;;;;;;7.88;5.75;;;18.60;41.90;17.60;101006.00;;;;5052136;28;20395;-71
2022/11/14 09:55:52;;;;;;;6.95;5.28;;;18.60;41.90;17.70;101006.00;;;;5052131;28;20034;-71
2022/11/14 09:58:19;;;;;;;8.90;6.07;;;18.60;41.90;17.70;101006.00;;;;5051864;28;20035;-72
2022/11/14 10:00:49;;;;;;;;;;;18.70;42.00;17.70;100996.00;;;;5034407;28;20099;-72
2022/11/14 10:03:58;;;;;;;5.72;4.95;;;18.60;42.00;17.70;100997.00;;;;5051578;28;19918;-71
2022/11/14 10:07:00;;;;;;;7.82;5.32;;;18.70;41.90;17.70;100983.00;;;;5048875;28;20049;-71
2022/11/14 10:10:02;;;;;;;8.32;5.72;;;18.60;41.80;17.70;100976.00;;;;5053191;28;20078;-72
2022/11/14 10:12:42;;;;;;;7.13;4.97;;;18.70;41.90;17.70;100979.00;;;;5035934;28;20036;-72
2022/11/14 10:15:27;;;;;;;8.57;5.82;;;18.70;41.90;17.70;100980.00;;;;5048943;28;20120;-71
2022/11/14 10:18:05;;;;;;;7.45;5.05;;;18.70;42.00;17.70;100969.00;;;;5031578;28;20079;-72
2022/11/14 10:20:52;;;;;;;6.90;5.35;;;18.70;42.00;17.70;100966.00;;;;5051026;28;20074;-72
2022/11/14 10:23:37;;;;;;;6.80;5.15;;;18.70;42.00;17.70;100965.00;;;;5043332;28;20024;-71
2022/11/14 10:26:15;;;;;;;7.38;5.45;;;18.70;41.90;17.70;100957.00;;;;5049939;28;20040;-71
2022/11/14 10:28:51;;;;;;;7.15;5.35;;;18.70;42.00;17.70;100959.00;;;;5052006;28;20112;-71
2022/11/14 10:31:42;;;;;;;7.50;5.32;;;18.90;42.10;17.70;100951.00;;;;5050754;28;20494;-72
2022/11/14 10:34:16;;;;;;;7.05;4.90;;;18.80;42.00;17.70;100932.00;;;;5050119;28;20037;-71
2022/11/14 10:37:04;;;;;;;7.25;5.68;;;18.80;42.00;17.80;100943.00;;;;5051429;28;20112;-72
2022/11/14 10:39:43;;;;;;;7.18;5.28;;;18.70;41.90;17.70;100954.00;;;;5044453;28;20397;-71
2022/11/14 10:42:39;;;;;;;6.35;5.07;;;18.80;42.00;17.80;100953.00;;;;5064299;28;20067;-71
2022/11/14 10:45:28;;;;;;;7.00;5.15;;;18.80;42.00;17.80;100946.00;;;;5010503;28;20033;-71
2022/11/14 10:47:57;;;;;;;7.50;5.50;;;18.80;42.00;17.80;100950.00;;;;5050528;28;20028;-71